Observations for CULDROSE NAVY, United Kingdom (EGDR)

EGDR 191950Z AUTO 32006KT 9999 // NCD 09/07 Q1006   
EGDR 191850Z AUTO 33006KT 9999 // NCD 09/07 Q1005   
EGDR 191750Z AUTO 32007KT 9999 // FEW022/// 10/07 Q1004 
EGDR 191650Z AUTO 32007KT 9999 // FEW050/// 12/08 Q1004 
EGDR 191550Z AUTO 32009KT 9999 // BKN050/// 13/08 Q1003 
EGDR 191450Z AUTO 33010KT 9999 // FEW024/// BKN050/// 14/08 Q1003   
EGDR 191350Z AUTO 31008KT 9999 // BKN043/// 14/06 Q1003 
EGDR 191321Z 30010KT 9999 -SHRA FEW018 SCT020 BKN050 12/08 Q1003 TEMPO 5000 SHRA SCT010 RMK WHT TEMPO GRN   
EGDR 191250Z 32008KT 9999 VCSH FEW018 13/08 Q1002 TEMPO 5000 SHRA SCT010 RMK BLU TEMPO GRN  
EGDR 191221Z 29006KT 9999 VCSH FEW018 13/08 Q1002 TEMPO 5000 SHRA SCT010 RMK BLU TEMPO GRN  
EGDR 191150Z 32006KT 9999 FEW018 SCT025 13/08 Q1002 TEMPO 5000 SHRA SCT010 RMK BLU TEMPO GRN
EGDR 191118Z 32003KT 9999 VCSH FEW014 FEW018CB SCT020 12/08 Q1002 TEMPO 5000 SHRA SCT010 RMK WHT TEMPO GRN  
EGDR 191050Z 34002KT 9999 VCSH FEW014 FEW018CB SCT020 11/08 Q1002 TEMPO 5000 SHRA SCT010 RMK WHT TEMPO GRN  
EGDR 191017Z 34006KT 9999 SHRA FEW014 FEW018CB SCT020 12/09 Q1002 TEMPO 5000 SHRA SCT010 RMK WHT TEMPO GRN  
EGDR 190950Z AUTO 35008KT 9999 // FEW018/// 11/08 Q1002 
EGDR 190850Z 27006KT 9999 VCSH FEW018CB 11/09 Q1001 TEMPO 5000 SHRA SCT010 RMK BLU TEMPO GRN
EGDR 190750Z AUTO 27007KT 9999 // NCD 10/08 Q1001   
EGDR 190650Z AUTO 28008KT 9999 // FEW021/// 09/07 Q1000 
EGDR 190550Z AUTO 29008KT 9999 // FEW130/// 09/07 Q1000 
EGDR 190450Z AUTO 30008KT 9999 // FEW019/// 09/08 Q1000 
EGDR 190350Z AUTO 27011KT 9999 // FEW050/// 10/08 Q0999 
EGDR 190250Z AUTO 27010KT 9999 // NCD 11/09 Q0999   
EGDR 190150Z AUTO 27011KT 9999 // FEW023/// 11/09 Q0999 
EGDR 190050Z AUTO 27012KT 9999 // FEW021/// 11/09 Q0999 
EGDR 182350Z AUTO 27015KT 9999 // FEW018/// 12/09 Q0999 
EGDR 182250Z AUTO 26014KT 9999 // FEW018/// 12/09 Q0999 
EGDR 182150Z AUTO 26013G25KT 9999 // FEW034/// 12/09 Q0999  
EGDR 182050Z AUTO 25012KT 9999 // FEW016/// 12/10 Q0999 
EGDR 181950Z AUTO 25013KT 9999 // FEW016/// 12/09 Q0999